sensor_id;sensor_type;location;lat;lon;timestamp;pressure;altitude;pressure_sealevel;temperature;humidity
74045;BME280;62389;51.412;5.436;2023-05-20T00:00:59;102227.63;;;14.23;53.83
74045;BME280;62389;51.412;5.436;2023-05-20T00:03:25;102224.25;;;14.20;54.20
74045;BME280;62389;51.412;5.436;2023-05-20T00:05:50;102222.66;;;14.16;54.57
74045;BME280;62389;51.412;5.436;2023-05-20T00:08:17;102228.97;;;14.10;54.72
74045;BME280;62389;51.412;5.436;2023-05-20T00:10:43;102232.59;;;14.08;55.33
74045;BME280;62389;51.412;5.436;2023-05-20T00:13:08;102231.75;;;14.07;55.41
74045;BME280;62389;51.412;5.436;2023-05-20T00:15:34;102234.44;;;14.06;55.67
74045;BME280;62389;51.412;5.436;2023-05-20T00:18:00;102231.91;;;14.03;55.71
74045;BME280;62389;51.412;5.436;2023-05-20T00:20:26;102229.38;;;13.99;55.86
74045;BME280;62389;51.412;5.436;2023-05-20T00:22:52;102226.88;;;13.96;56.17
74045;BME280;62389;51.412;5.436;2023-05-20T00:25:17;102232.22;;;13.93;55.65
74045;BME280;62389;51.412;5.436;2023-05-20T00:27:43;102227.06;;;13.90;56.35
74045;BME280;62389;51.412;5.436;2023-05-20T00:30:08;102222.72;;;13.89;56.47
74045;BME280;62389;51.412;5.436;2023-05-20T00:32:34;102219.41;;;13.84;56.50
74045;BME280;62389;51.412;5.436;2023-05-20T00:35:00;102222.09;;;13.83;56.80
74045;BME280;62389;51.412;5.436;2023-05-20T00:37:26;102219.53;;;13.81;57.18
74045;BME280;62389;51.412;5.436;2023-05-20T00:39:51;102225.66;;;13.80;57.25
74045;BME280;62389;51.412;5.436;2023-05-20T00:42:20;102217.97;;;13.76;57.46
74045;BME280;62389;51.412;5.436;2023-05-20T00:44:46;102222.41;;;13.73;57.62
74045;BME280;62389;51.412;5.436;2023-05-20T00:47:12;102223.38;;;13.71;58.19
74045;BME280;62389;51.412;5.436;2023-05-20T00:49:37;102225.31;;;13.66;57.57
74045;BME280;62389;51.412;5.436;2023-05-20T00:52:03;102225.41;;;13.63;58.22
74045;BME280;62389;51.412;5.436;2023-05-20T00:54:29;102219.44;;;13.58;58.31
74045;BME280;62389;51.412;5.436;2023-05-20T00:56:54;102220.38;;;13.57;58.86
74045;BME280;62389;51.412;5.436;2023-05-20T00:59:20;102221.31;;;13.54;58.82
74045;BME280;62389;51.412;5.436;2023-05-20T01:01:46;102213.50;;;13.53;58.52
74045;BME280;62389;51.412;5.436;2023-05-20T01:04:11;102210.06;;;13.51;58.73
74045;BME280;62389;51.412;5.436;2023-05-20T01:06:36;102212.72;;;13.49;59.30
74045;BME280;62389;51.412;5.436;2023-05-20T01:09:02;102212.00;;;13.45;59.46
74045;BME280;62389;51.412;5.436;2023-05-20T01:11:33;102209.47;;;13.42;59.28
74045;BME280;62389;51.412;5.436;2023-05-20T01:14:05;102199.94;;;13.38;59.07
74045;BME280;62389;51.412;5.436;2023-05-20T01:16:34;102205.31;;;13.35;60.22
74045;BME280;62389;51.412;5.436;2023-05-20T01:19:01;102207.13;;;13.33;59.77
74045;BME280;62389;51.412;5.436;2023-05-20T01:21:29;102204.66;;;13.29;60.20
74045;BME280;62389;51.412;5.436;2023-05-20T01:23:55;102201.25;;;13.27;60.89
74045;BME280;62389;51.412;5.436;2023-05-20T01:26:20;102208.28;;;13.25;60.86
74045;BME280;62389;51.412;5.436;2023-05-20T01:28:46;102206.63;;;13.22;60.86
74045;BME280;62389;51.412;5.436;2023-05-20T01:31:23;102213.66;;;13.20;60.17
74045;BME280;62389;51.412;5.436;2023-05-20T01:33:52;102212.00;;;13.17;60.93
74045;BME280;62389;51.412;5.436;2023-05-20T01:36:20;102205.97;;;13.15;61.21
74045;BME280;62389;51.412;5.436;2023-05-20T01:38:46;102199.03;;;13.13;61.65
74045;BME280;62389;51.412;5.436;2023-05-20T01:41:12;102205.25;;;13.10;61.63
74045;BME280;62389;51.412;5.436;2023-05-20T01:43:38;102193.13;;;13.06;61.67
74045;BME280;62389;51.412;5.436;2023-05-20T01:46:05;102194.13;;;13.02;61.92
74045;BME280;62389;51.412;5.436;2023-05-20T01:48:30;102192.44;;;13.00;61.65
74045;BME280;62389;51.412;5.436;2023-05-20T01:50:56;102199.47;;;12.99;62.21
74045;BME280;62389;51.412;5.436;2023-05-20T01:53:21;102203.97;;;12.95;62.66
74045;BME280;62389;51.412;5.436;2023-05-20T01:55:46;102193.63;;;12.91;61.98
74045;BME280;62389;51.412;5.436;2023-05-20T01:58:12;102197.19;;;12.88;62.72
74045;BME280;62389;51.412;5.436;2023-05-20T02:00:37;102198.09;;;12.87;62.75
74045;BME280;62389;51.412;5.436;2023-05-20T02:03:02;102199.91;;;12.85;62.54
74045;BME280;62389;51.412;5.436;2023-05-20T02:05:28;102186.88;;;12.82;62.93
74045;BME280;62389;51.412;5.436;2023-05-20T02:07:54;102189.59;;;12.79;63.27
74045;BME280;62389;51.412;5.436;2023-05-20T02:10:20;102191.41;;;12.77;63.27
74045;BME280;62389;51.412;5.436;2023-05-20T02:12:45;102188.00;;;12.74;63.23
74045;BME280;62389;51.412;5.436;2023-05-20T02:15:12;102191.63;;;12.71;63.38
74045;BME280;62389;51.412;5.436;2023-05-20T02:17:38;102186.38;;;12.69;63.26
74045;BME280;62389;51.412;5.436;2023-05-20T02:20:04;102186.44;;;12.68;63.44
74045;BME280;62389;51.412;5.436;2023-05-20T02:22:31;102185.66;;;12.66;63.58
74045;BME280;62389;51.412;5.436;2023-05-20T02:24:57;102180.41;;;12.64;63.82
74045;BME280;62389;51.412;5.436;2023-05-20T02:27:22;102190.13;;;12.62;64.00
74045;BME280;62389;51.412;5.436;2023-05-20T02:29:47;102191.88;;;12.62;64.41
74045;BME280;62389;51.412;5.436;2023-05-20T02:32:13;102185.88;;;12.58;64.73
74045;BME280;62389;51.412;5.436;2023-05-20T02:34:38;102186.84;;;12.56;64.22
74045;BME280;62389;51.412;5.436;2023-05-20T02:37:03;102178.19;;;12.52;64.60
74045;BME280;62389;51.412;5.436;2023-05-20T02:39:29;102183.50;;;12.51;64.69
74045;BME280;62389;51.412;5.436;2023-05-20T02:41:54;102180.94;;;12.48;64.49
74045;BME280;62389;51.412;5.436;2023-05-20T02:44:20;102183.66;;;12.44;65.05
74045;BME280;62389;51.412;5.436;2023-05-20T02:46:46;102182.06;;;12.40;65.36
74045;BME280;62389;51.412;5.436;2023-05-20T02:49:11;102183.91;;;12.37;65.50
74045;BME280;62389;51.412;5.436;2023-05-20T02:51:37;102177.81;;;12.35;65.46
74045;BME280;62389;51.412;5.436;2023-05-20T02:54:02;102182.22;;;12.34;65.48
74045;BME280;62389;51.412;5.436;2023-05-20T02:56:28;102177.06;;;12.31;66.09
74045;BME280;62389;51.412;5.436;2023-05-20T02:58:54;102179.78;;;12.28;66.06
74045;BME280;62389;51.412;5.436;2023-05-20T03:01:19;102181.59;;;12.26;65.51
74045;BME280;62389;51.412;5.436;2023-05-20T03:03:46;102177.25;;;12.25;65.86
74045;BME280;62389;51.412;5.436;2023-05-20T03:06:11;102180.75;;;12.24;65.99
74045;BME280;62389;51.412;5.436;2023-05-20T03:08:37;102180.75;;;12.24;66.33
74045;BME280;62389;51.412;5.436;2023-05-20T03:11:03;102179.97;;;12.22;66.25
74045;BME280;62389;51.412;5.436;2023-05-20T03:13:29;102171.28;;;12.20;66.62
74045;BME280;62389;51.412;5.436;2023-05-20T03:15:54;102175.69;;;12.18;67.08
74045;BME280;62389;51.412;5.436;2023-05-20T03:18:20;102181.00;;;12.16;66.36
74045;BME280;62389;51.412;5.436;2023-05-20T03:20:45;102175.81;;;12.13;66.86
74045;BME280;62389;51.412;5.436;2023-05-20T03:23:11;102168.06;;;12.10;67.01
74045;BME280;62389;51.412;5.436;2023-05-20T03:25:37;102165.53;;;12.07;67.28
74045;BME280;62389;51.412;5.436;2023-05-20T03:28:03;102170.81;;;12.06;67.10
74045;BME280;62389;51.412;5.436;2023-05-20T03:30:28;102171.69;;;12.05;67.52
74045;BME280;62389;51.412;5.436;2023-05-20T03:32:54;102166.50;;;12.03;67.17
74045;BME280;62389;51.412;5.436;2023-05-20T03:35:21;102170.03;;;12.02;67.30
74045;BME280;62389;51.412;5.436;2023-05-20T03:37:47;102172.66;;;12.02;67.37
74045;BME280;62389;51.412;5.436;2023-05-20T03:40:12;102175.34;;;12.01;67.46
74045;BME280;62389;51.412;5.436;2023-05-20T03:42:38;102180.59;;;11.99;67.55
74045;BME280;62389;51.412;5.436;2023-05-20T03:45:04;102174.50;;;11.99;67.35
74045;BME280;62389;51.412;5.436;2023-05-20T03:47:31;102176.31;;;11.97;67.49
74045;BME280;62389;51.412;5.436;2023-05-20T03:49:56;102167.53;;;11.98;67.96
74045;BME280;62389;51.412;5.436;2023-05-20T03:52:22;102168.47;;;11.97;67.79
74045;BME280;62389;51.412;5.436;2023-05-20T03:54:47;102170.25;;;11.95;67.68
74045;BME280;62389;51.412;5.436;2023-05-20T03:57:12;102171.16;;;11.93;67.80
74045;BME280;62389;51.412;5.436;2023-05-20T03:59:38;102169.44;;;11.92;68.23
74045;BME280;62389;51.412;5.436;2023-05-20T04:02:04;102163.34;;;11.92;68.06
74045;BME280;62389;51.412;5.436;2023-05-20T04:04:30;102159.84;;;11.91;68.16
74045;BME280;62389;51.412;5.436;2023-05-20T04:06:57;102170.34;;;11.91;68.25
74045;BME280;62389;51.412;5.436;2023-05-20T04:09:22;102171.25;;;11.90;68.53
74045;BME280;62389;51.412;5.436;2023-05-20T04:11:48;102176.53;;;11.89;68.72
74045;BME280;62389;51.412;5.436;2023-05-20T04:14:13;102178.28;;;11.88;68.92
74045;BME280;62389;51.412;5.436;2023-05-20T04:16:39;102175.72;;;11.87;68.80
74045;BME280;62389;51.412;5.436;2023-05-20T04:19:04;102179.13;;;11.89;68.73
74045;BME280;62389;51.412;5.436;2023-05-20T04:21:30;102180.91;;;11.88;68.91
74045;BME280;62389;51.412;5.436;2023-05-20T04:23:55;102182.66;;;11.88;69.11
74045;BME280;62389;51.412;5.436;2023-05-20T04:26:21;102194.00;;;11.90;69.00
74045;BME280;62389;51.412;5.436;2023-05-20T04:28:46;102182.63;;;11.89;69.32
74045;BME280;62389;51.412;5.436;2023-05-20T04:31:15;102180.00;;;11.89;69.38
74045;BME280;62389;51.412;5.436;2023-05-20T04:33:40;102173.03;;;11.88;69.46
74045;BME280;62389;51.412;5.436;2023-05-20T04:36:11;102179.13;;;11.89;69.33
74045;BME280;62389;51.412;5.436;2023-05-20T04:38:40;102179.06;;;11.92;69.32
74045;BME280;62389;51.412;5.436;2023-05-20T04:41:06;102175.53;;;11.93;69.22
74045;BME280;62389;51.412;5.436;2023-05-20T04:43:32;102178.09;;;11.95;69.83
74045;BME280;62389;51.412;5.436;2023-05-20T04:45:58;102173.69;;;11.97;69.71
74045;BME280;62389;51.412;5.436;2023-05-20T04:48:25;102166.75;;;11.96;69.18
74045;BME280;62389;51.412;5.436;2023-05-20T04:50:51;102171.88;;;11.99;69.23
74045;BME280;62389;51.412;5.436;2023-05-20T04:53:17;102179.75;;;11.99;69.79
74045;BME280;62389;51.412;5.436;2023-05-20T04:55:44;102172.75;;;11.99;70.02
74045;BME280;62389;51.412;5.436;2023-05-20T04:58:10;102176.22;;;12.00;70.04
74045;BME280;62389;51.412;5.436;2023-05-20T05:00:43;102162.22;;;12.01;69.79
74045;BME280;62389;51.412;5.436;2023-05-20T05:03:09;102170.03;;;12.02;69.99
74045;BME280;62389;51.412;5.436;2023-05-20T05:05:37;102170.03;;;12.02;69.37
74045;BME280;62389;51.412;5.436;2023-05-20T05:08:04;102165.59;;;12.04;69.69
74045;BME280;62389;51.412;5.436;2023-05-20T05:10:30;102165.56;;;12.06;69.75
74045;BME280;62389;51.412;5.436;2023-05-20T05:12:56;102162.00;;;12.08;69.36
74045;BME280;62389;51.412;5.436;2023-05-20T05:15:22;102156.72;;;12.10;69.89
74045;BME280;62389;51.412;5.436;2023-05-20T05:17:47;102159.28;;;12.11;69.67
74045;BME280;62389;51.412;5.436;2023-05-20T05:20:12;102155.69;;;12.14;69.53
74045;BME280;62389;51.412;5.436;2023-05-20T05:22:38;102161.78;;;12.16;69.65
74045;BME280;62389;51.412;5.436;2023-05-20T05:25:06;102160.81;;;12.18;70.07
74045;BME280;62389;51.412;5.436;2023-05-20T05:27:31;102157.25;;;12.21;70.68
74045;BME280;62389;51.412;5.436;2023-05-20T05:29:57;102161.59;;;12.22;70.83
74045;BME280;62389;51.412;5.436;2023-05-20T05:32:22;102155.38;;;12.25;69.80
74045;BME280;62389;51.412;5.436;2023-05-20T05:34:47;102150.13;;;12.26;70.65
74045;BME280;62389;51.412;5.436;2023-05-20T05:37:13;102148.22;;;12.30;69.84
74045;BME280;62389;51.412;5.436;2023-05-20T05:39:38;102152.53;;;12.32;70.66
74045;BME280;62389;51.412;5.436;2023-05-20T05:42:04;102148.06;;;12.36;69.64
74045;BME280;62389;51.412;5.436;2023-05-20T05:44:29;102149.72;;;12.38;69.66
74045;BME280;62389;51.412;5.436;2023-05-20T05:46:55;102154.00;;;12.42;69.87
74045;BME280;62389;51.412;5.436;2023-05-20T05:49:20;102152.13;;;12.46;70.05
74045;BME280;62389;51.412;5.436;2023-05-20T05:51:46;102151.16;;;12.49;69.86
74045;BME280;62389;51.412;5.436;2023-05-20T05:54:11;102152.78;;;12.53;69.74
74045;BME280;62389;51.412;5.436;2023-05-20T05:56:36;102160.59;;;12.56;69.97
74045;BME280;62389;51.412;5.436;2023-05-20T05:59:03;102156.06;;;12.59;69.90
74045;BME280;62389;51.412;5.436;2023-05-20T06:01:28;102154.22;;;12.63;69.41
74045;BME280;62389;51.412;5.436;2023-05-20T06:03:54;102158.47;;;12.67;69.40
74045;BME280;62389;51.412;5.436;2023-05-20T06:06:19;102150.47;;;12.72;69.26
74045;BME280;62389;51.412;5.436;2023-05-20T06:08:44;102156.50;;;12.74;69.67
74045;BME280;62389;51.412;5.436;2023-05-20T06:11:10;102149.41;;;12.77;69.57
74045;BME280;62389;51.412;5.436;2023-05-20T06:13:35;102146.63;;;12.82;69.63
74045;BME280;62389;51.412;5.436;2023-05-20T06:16:00;102141.25;;;12.85;69.30
74045;BME280;62389;51.412;5.436;2023-05-20T06:18:26;102140.22;;;12.90;68.31
74045;BME280;62389;51.412;5.436;2023-05-20T06:20:56;102133.09;;;12.94;69.39
74045;BME280;62389;51.412;5.436;2023-05-20T06:23:21;102132.09;;;12.98;68.36
74045;BME280;62389;51.412;5.436;2023-05-20T06:25:46;102129.31;;;13.03;68.79
74045;BME280;62389;51.412;5.436;2023-05-20T06:28:12;102124.75;;;13.08;68.68
74045;BME280;62389;51.412;5.436;2023-05-20T06:30:39;102127.19;;;13.14;68.65
74045;BME280;62389;51.412;5.436;2023-05-20T06:33:04;102131.38;;;13.19;68.29
74045;BME280;62389;51.412;5.436;2023-05-20T06:35:30;102124.22;;;13.25;68.36
74045;BME280;62389;51.412;5.436;2023-05-20T06:37:55;102130.00;;;13.34;67.61
74045;BME280;62389;51.412;5.436;2023-05-20T06:40:20;102126.97;;;13.46;67.70
74045;BME280;62389;51.412;5.436;2023-05-20T06:42:46;102120.34;;;13.60;66.90
74045;BME280;62389;51.412;5.436;2023-05-20T06:45:11;102123.63;;;13.66;67.03
74045;BME280;62389;51.412;5.436;2023-05-20T06:47:38;102112.94;;;13.71;66.55
74045;BME280;62389;51.412;5.436;2023-05-20T06:50:03;102115.34;;;13.77;67.32
74045;BME280;62389;51.412;5.436;2023-05-20T06:52:29;102113.47;;;13.81;67.93
74045;BME280;62389;51.412;5.436;2023-05-20T06:54:54;102108.16;;;13.82;66.22
74045;BME280;62389;51.412;5.436;2023-05-20T06:57:19;102112.50;;;13.83;65.88
74045;BME280;62389;51.412;5.436;2023-05-20T06:59:46;102114.19;;;13.84;66.81
74045;BME280;62389;51.412;5.436;2023-05-20T07:02:11;102111.53;;;13.86;67.16
74045;BME280;62389;51.412;5.436;2023-05-20T07:04:37;102104.44;;;13.88;66.15
74045;BME280;62389;51.412;5.436;2023-05-20T07:07:02;102107.81;;;13.91;66.92
74045;BME280;62389;51.412;5.436;2023-05-20T07:09:27;102106.75;;;13.95;65.74
74045;BME280;62389;51.412;5.436;2023-05-20T07:11:53;102104.81;;;14.00;65.78
74045;BME280;62389;51.412;5.436;2023-05-20T07:14:18;102107.28;;;14.05;66.18
74045;BME280;62389;51.412;5.436;2023-05-20T07:16:43;102102.75;;;14.09;65.23
74045;BME280;62389;51.412;5.436;2023-05-20T07:19:09;102098.19;;;14.14;65.52
74045;BME280;62389;51.412;5.436;2023-05-20T07:21:34;102102.34;;;14.19;65.06
74045;BME280;62389;51.412;5.436;2023-05-20T07:24:00;102102.16;;;14.24;65.00
74045;BME280;62389;51.412;5.436;2023-05-20T07:26:25;102096.66;;;14.30;64.45
74045;BME280;62389;51.412;5.436;2023-05-20T07:28:51;102095.59;;;14.36;63.08
74045;BME280;62389;51.412;5.436;2023-05-20T07:31:16;102094.47;;;14.41;63.63
74045;BME280;62389;51.412;5.436;2023-05-20T07:33:42;102089.88;;;14.46;64.44
74045;BME280;62389;51.412;5.436;2023-05-20T07:36:07;102091.44;;;14.52;64.70
74045;BME280;62389;51.412;5.436;2023-05-20T07:38:32;102079.88;;;14.56;63.02
74045;BME280;62389;51.412;5.436;2023-05-20T07:40:58;102081.41;;;14.62;63.01
74045;BME280;62389;51.412;5.436;2023-05-20T07:43:23;102079.44;;;14.67;63.17
74045;BME280;62389;51.412;5.436;2023-05-20T07:45:48;102076.63;;;14.71;60.66
74045;BME280;62389;51.412;5.436;2023-05-20T07:48:14;102074.66;;;14.76;60.57
74045;BME280;62389;51.412;5.436;2023-05-20T07:50:39;102080.59;;;14.82;61.44
74045;BME280;62389;51.412;5.436;2023-05-20T07:53:05;102065.44;;;14.87;61.64
74045;BME280;62389;51.412;5.436;2023-05-20T07:55:34;102078.28;;;14.94;62.13
74045;BME280;62389;51.412;5.436;2023-05-20T07:58:02;102065.56;;;15.04;61.76
74045;BME280;62389;51.412;5.436;2023-05-20T08:00:28;102068.66;;;15.14;62.47
74045;BME280;62389;51.412;5.436;2023-05-20T08:02:53;102071.75;;;15.23;63.00
74045;BME280;62389;51.412;5.436;2023-05-20T08:05:19;102060.88;;;15.31;60.08
74045;BME280;62389;51.412;5.436;2023-05-20T08:07:44;102059.63;;;15.40;60.57
74045;BME280;62389;51.412;5.436;2023-05-20T08:10:09;102061.75;;;15.50;60.39
74045;BME280;62389;51.412;5.436;2023-05-20T08:12:36;102061.44;;;15.58;59.35
74045;BME280;62389;51.412;5.436;2023-05-20T08:15:01;102058.34;;;15.69;60.27
74045;BME280;62389;51.412;5.436;2023-05-20T08:17:27;102056.13;;;15.78;60.42
74045;BME280;62389;51.412;5.436;2023-05-20T08:19:52;102059.13;;;15.90;60.68
74045;BME280;62389;51.412;5.436;2023-05-20T08:22:17;102047.38;;;15.97;58.36
74045;BME280;62389;51.412;5.436;2023-05-20T08:24:43;102052.38;;;16.03;58.03
74045;BME280;62389;51.412;5.436;2023-05-20T08:27:08;102042.44;;;16.08;56.31
74045;BME280;62389;51.412;5.436;2023-05-20T08:29:33;102059.00;;;16.12;56.09
74045;BME280;62389;51.412;5.436;2023-05-20T08:31:59;102043.84;;;16.15;55.62
74045;BME280;62389;51.412;5.436;2023-05-20T08:34:24;102042.41;;;16.27;55.49
74045;BME280;62389;51.412;5.436;2023-05-20T08:36:49;102038.31;;;16.39;55.80
74045;BME280;62389;51.412;5.436;2023-05-20T08:39:15;102041.44;;;16.47;56.86
74045;BME280;62389;51.412;5.436;2023-05-20T08:41:40;102049.06;;;16.53;55.77
74045;BME280;62389;51.412;5.436;2023-05-20T08:44:06;102040.59;;;16.64;56.41
74045;BME280;62389;51.412;5.436;2023-05-20T08:46:34;102039.88;;;16.79;54.00
74045;BME280;62389;51.412;5.436;2023-05-20T08:49:01;102031.44;;;17.05;54.30
74045;BME280;62389;51.412;5.436;2023-05-20T08:51:26;102038.25;;;17.27;54.46
74045;BME280;62389;51.412;5.436;2023-05-20T08:53:52;102039.13;;;17.27;51.88
74045;BME280;62389;51.412;5.436;2023-05-20T08:56:18;102030.31;;;17.27;53.14
74045;BME280;62389;51.412;5.436;2023-05-20T08:58:44;102026.44;;;17.34;54.78
74045;BME280;62389;51.412;5.436;2023-05-20T09:01:11;102032.94;;;17.44;53.60
74045;BME280;62389;51.412;5.436;2023-05-20T09:03:36;102030.41;;;17.58;52.95
74045;BME280;62389;51.412;5.436;2023-05-20T09:06:03;102025.84;;;17.78;51.71
74045;BME280;62389;51.412;5.436;2023-05-20T09:08:29;102019.50;;;17.96;50.97
74045;BME280;62389;51.412;5.436;2023-05-20T09:10:55;102026.72;;;18.40;53.34
74045;BME280;62389;51.412;5.436;2023-05-20T09:13:22;102016.88;;;19.88;49.05
74045;BME280;62389;51.412;5.436;2023-05-20T09:15:47;102009.19;;;22.03;44.35
74045;BME280;62389;51.412;5.436;2023-05-20T09:18:13;102009.72;;;24.13;39.87
74045;BME280;62389;51.412;5.436;2023-05-20T09:20:38;102009.78;;;25.79;34.96
74045;BME280;62389;51.412;5.436;2023-05-20T09:23:05;102008.03;;;27.04;41.23
74045;BME280;62389;51.412;5.436;2023-05-20T09:25:31;101993.41;;;28.08;30.91
74045;BME280;62389;51.412;5.436;2023-05-20T09:27:57;102012.22;;;28.88;29.72
74045;BME280;62389;51.412;5.436;2023-05-20T09:30:23;102012.69;;;29.86;28.92
74045;BME280;62389;51.412;5.436;2023-05-20T09:32:52;101999.94;;;30.86;28.28
74045;BME280;62389;51.412;5.436;2023-05-20T09:35:18;102006.25;;;31.65;25.70
74045;BME280;62389;51.412;5.436;2023-05-20T09:37:45;102014.41;;;32.19;25.74
74045;BME280;62389;51.412;5.436;2023-05-20T09:40:12;102013.41;;;32.58;24.35
74045;BME280;62389;51.412;5.436;2023-05-20T09:42:49;102026.13;;;31.80;26.94
74045;BME280;62389;51.412;5.436;2023-05-20T09:45:15;102008.88;;;30.94;26.55
74045;BME280;62389;51.412;5.436;2023-05-20T09:47:42;102022.03;;;30.08;28.22
74045;BME280;62389;51.412;5.436;2023-05-20T09:50:07;102013.94;;;30.16;31.55
74045;BME280;62389;51.412;5.436;2023-05-20T09:52:34;102002.97;;;29.51;28.83
74045;BME280;62389;51.412;5.436;2023-05-20T09:55:01;102005.09;;;28.35;30.56
74045;BME280;62389;51.412;5.436;2023-05-20T09:57:32;102010.50;;;27.34;32.17
74045;BME280;62389;51.412;5.436;2023-05-20T09:59:57;102005.59;;;26.34;32.80
74045;BME280;62389;51.412;5.436;2023-05-20T10:02:23;101994.19;;;25.63;34.81
74045;BME280;62389;51.412;5.436;2023-05-20T10:04:50;101993.78;;;24.97;35.64
74045;BME280;62389;51.412;5.436;2023-05-20T10:07:29;101988.56;;;24.21;36.31
74045;BME280;62389;51.412;5.436;2023-05-20T10:12:38;101992.63;;;23.05;38.71
74045;BME280;62389;51.412;5.436;2023-05-20T10:15:29;101981.84;;;22.60;40.27
74045;BME280;62389;51.412;5.436;2023-05-20T10:20:58;101971.72;;;21.93;42.24
74045;BME280;62389;51.412;5.436;2023-05-20T10:23:27;101976.66;;;21.87;44.26
74045;BME280;62389;51.412;5.436;2023-05-20T10:25:54;101962.03;;;21.92;45.44
74045;BME280;62389;51.412;5.436;2023-05-20T10:28:30;101954.44;;;21.99;40.85
74045;BME280;62389;51.412;5.436;2023-05-20T10:30:57;101957.53;;;21.93;41.36
74045;BME280;62389;51.412;5.436;2023-05-20T10:33:24;101960.44;;;21.90;42.08
74045;BME280;62389;51.412;5.436;2023-05-20T10:35:50;101951.19;;;21.83;43.46
74045;BME280;62389;51.412;5.436;2023-05-20T10:38:19;101960.50;;;21.77;43.70
74045;BME280;62389;51.412;5.436;2023-05-20T10:40:46;101960.38;;;21.79;42.61
74045;BME280;62389;51.412;5.436;2023-05-20T10:43:13;101960.16;;;21.82;43.15
74045;BME280;62389;51.412;5.436;2023-05-20T10:45:49;101956.16;;;21.63;42.36
74045;BME280;62389;51.412;5.436;2023-05-20T10:48:29;101954.22;;;21.29;41.63
74045;BME280;62389;51.412;5.436;2023-05-20T10:51:02;101947.97;;;20.91;42.95
74045;BME280;62389;51.412;5.436;2023-05-20T10:53:40;101964.22;;;20.61;44.16
74045;BME280;62389;51.412;5.436;2023-05-20T10:56:16;101949.13;;;20.49;46.69
74045;BME280;62389;51.412;5.436;2023-05-20T10:58:43;101939.56;;;20.59;44.37
74045;BME280;62389;51.412;5.436;2023-05-20T11:01:09;101941.06;;;20.63;44.53
74045;BME280;62389;51.412;5.436;2023-05-20T11:03:35;101946.56;;;20.60;45.84
74045;BME280;62389;51.412;5.436;2023-05-20T11:06:00;101939.75;;;20.56;44.72
74045;BME280;62389;51.412;5.436;2023-05-20T11:08:29;101932.22;;;20.63;45.27
74045;BME280;62389;51.412;5.436;2023-05-20T11:10:58;101941.47;;;20.83;47.64
74045;BME280;62389;51.412;5.436;2023-05-20T11:13:23;101930.31;;;20.90;45.17
74045;BME280;62389;51.412;5.436;2023-05-20T11:15:49;101934.69;;;21.04;45.18
74045;BME280;62389;51.412;5.436;2023-05-20T11:18:14;101924.84;;;21.17;46.37
74045;BME280;62389;51.412;5.436;2023-05-20T11:20:40;101926.00;;;21.13;45.80
74045;BME280;62389;51.412;5.436;2023-05-20T11:23:10;101917.94;;;21.15;46.30
74045;BME280;62389;51.412;5.436;2023-05-20T11:25:37;101914.53;;;21.13;44.21
74045;BME280;62389;51.412;5.436;2023-05-20T11:28:02;101922.31;;;21.16;46.45
74045;BME280;62389;51.412;5.436;2023-05-20T11:30:29;101915.16;;;21.29;45.46
74045;BME280;62389;51.412;5.436;2023-05-20T11:32:58;101913.25;;;21.31;44.27
74045;BME280;62389;51.412;5.436;2023-05-20T11:35:25;101919.72;;;21.27;45.78
74045;BME280;62389;51.412;5.436;2023-05-20T11:37:54;101925.88;;;21.28;45.05
74045;BME280;62389;51.412;5.436;2023-05-20T11:40:23;101914.44;;;21.14;44.97
74045;BME280;62389;51.412;5.436;2023-05-20T11:42:52;101914.13;;;21.06;46.44
74045;BME280;62389;51.412;5.436;2023-05-20T11:45:17;101919.03;;;21.00;44.06
74045;BME280;62389;51.412;5.436;2023-05-20T11:47:43;101919.78;;;20.89;45.23
74045;BME280;62389;51.412;5.436;2023-05-20T11:50:08;101919.66;;;20.78;44.88
74045;BME280;62389;51.412;5.436;2023-05-20T11:52:34;101913.63;;;20.76;48.22
74045;BME280;62389;51.412;5.436;2023-05-20T11:55:00;101910.22;;;20.74;46.15
74045;BME280;62389;51.412;5.436;2023-05-20T11:57:25;101905.31;;;20.67;48.28
74045;BME280;62389;51.412;5.436;2023-05-20T11:59:50;101904.78;;;20.62;45.45
74045;BME280;62389;51.412;5.436;2023-05-20T12:02:16;101904.06;;;20.60;47.81
74045;BME280;62389;51.412;5.436;2023-05-20T12:04:41;101901.72;;;20.68;45.95
74045;BME280;62389;51.412;5.436;2023-05-20T12:07:06;101896.78;;;20.88;47.76
74045;BME280;62389;51.412;5.436;2023-05-20T12:09:34;101893.06;;;21.03;46.77
74045;BME280;62389;51.412;5.436;2023-05-20T12:11:59;101884.75;;;21.08;45.75
74045;BME280;62389;51.412;5.436;2023-05-20T12:14:24;101871.56;;;21.06;46.33
74045;BME280;62389;51.412;5.436;2023-05-20T12:16:50;101881.16;;;20.96;45.50
74045;BME280;62389;51.412;5.436;2023-05-20T12:19:16;101885.63;;;20.95;47.42
74045;BME280;62389;51.412;5.436;2023-05-20T12:21:41;101881.56;;;21.03;46.23
74045;BME280;62389;51.412;5.436;2023-05-20T12:24:07;101874.41;;;21.16;49.08
74045;BME280;62389;51.412;5.436;2023-05-20T12:26:33;101871.81;;;21.27;47.28
74045;BME280;62389;51.412;5.436;2023-05-20T12:28:59;101873.53;;;21.41;47.34
74045;BME280;62389;51.412;5.436;2023-05-20T12:31:25;101882.31;;;21.54;47.52
74045;BME280;62389;51.412;5.436;2023-05-20T12:33:50;101874.84;;;21.59;46.50
74045;BME280;62389;51.412;5.436;2023-05-20T12:36:15;101881.28;;;21.68;44.15
74045;BME280;62389;51.412;5.436;2023-05-20T12:38:41;101869.16;;;21.88;43.06
74045;BME280;62389;51.412;5.436;2023-05-20T12:41:07;101876.47;;;22.08;44.66
74045;BME280;62389;51.412;5.436;2023-05-20T12:43:32;101885.63;;;22.17;43.81
74045;BME280;62389;51.412;5.436;2023-05-20T12:45:59;101871.09;;;22.21;43.31
74045;BME280;62389;51.412;5.436;2023-05-20T12:48:24;101871.59;;;22.15;45.33
74045;BME280;62389;51.412;5.436;2023-05-20T12:50:50;101867.19;;;22.14;46.87